createdAt,value
2022-10-18T00:01:15.249Z,13.67
2022-10-18T00:04:02.225Z,14.10
2022-10-18T00:06:49.229Z,14.27
2022-10-18T00:09:36.167Z,15.17
2022-10-18T00:12:23.181Z,14.77
2022-10-18T00:15:11.623Z,18.53
2022-10-18T00:17:58.673Z,19.03
2022-10-18T00:20:46.048Z,18.37
2022-10-18T00:23:34.390Z,16.27
2022-10-18T00:26:26.905Z,19.27
2022-10-18T00:29:16.049Z,20.07
2022-10-18T00:32:03.056Z,21.30
2022-10-18T00:34:50.061Z,23.13
2022-10-18T00:37:37.113Z,24.43
2022-10-18T00:40:24.025Z,22.97
2022-10-18T00:43:17.249Z,21.10
2022-10-18T00:46:04.252Z,24.23
2022-10-18T00:48:55.958Z,23.27
2022-10-18T00:51:46.733Z,20.37
2022-10-18T00:54:36.036Z,22.63
2022-10-18T00:57:24.296Z,22.77
2022-10-18T01:00:13.237Z,25.50
2022-10-18T01:03:00.396Z,22.10
2022-10-18T01:05:48.517Z,19.77
2022-10-18T01:08:58.566Z,22.07
2022-10-18T01:12:24.929Z,23.13
2022-10-18T01:15:24.305Z,22.70
2022-10-18T01:18:32.576Z,23.80
2022-10-18T01:21:19.454Z,22.73
2022-10-18T01:24:33.718Z,24.37
2022-10-18T01:27:33.720Z,21.40
2022-10-18T01:31:08.666Z,21.97
2022-10-18T01:34:03.125Z,20.80
2022-10-18T01:36:54.101Z,21.67
2022-10-18T01:39:45.900Z,23.70
2022-10-18T01:42:32.952Z,23.87
2022-10-18T01:45:23.416Z,22.93
2022-10-18T01:48:12.166Z,24.47
2022-10-18T01:50:59.432Z,22.27
2022-10-18T01:53:46.388Z,22.93
2022-10-18T01:57:03.797Z,23.30
2022-10-18T02:00:01.865Z,21.03
2022-10-18T02:02:59.761Z,20.37
2022-10-18T02:05:51.261Z,19.27
2022-10-18T02:08:48.306Z,19.80
2022-10-18T02:11:38.305Z,18.43
2022-10-18T02:14:25.886Z,19.53
2022-10-18T02:17:15.293Z,19.90
2022-10-18T02:20:05.527Z,19.07
2022-10-18T02:22:55.963Z,18.53
2022-10-18T02:25:43.077Z,18.70
2022-10-18T02:28:30.328Z,20.97
2022-10-18T02:31:30.856Z,20.27
2022-10-18T02:34:32.205Z,18.13
2022-10-18T02:37:20.506Z,19.63
2022-10-18T02:40:10.240Z,18.83
2022-10-18T02:42:58.704Z,19.37
2022-10-18T02:45:45.766Z,18.77
2022-10-18T02:48:32.758Z,19.23
2022-10-18T02:51:19.749Z,18.73
2022-10-18T02:54:08.413Z,19.40
2022-10-18T02:56:55.618Z,20.17
2022-10-18T02:59:42.590Z,20.70
2022-10-18T03:02:29.510Z,21.67
2022-10-18T03:05:16.494Z,22.57
2022-10-18T03:08:03.615Z,21.03
2022-10-18T03:10:50.615Z,25.10
2022-10-18T03:13:37.629Z,21.50
2022-10-18T03:16:24.729Z,23.40
2022-10-18T03:19:11.927Z,25.33
2022-10-18T03:21:58.925Z,23.17
2022-10-18T03:24:45.879Z,23.67
2022-10-18T03:27:33.202Z,25.50
2022-10-18T03:30:20.469Z,26.00
2022-10-18T03:33:07.490Z,25.43
2022-10-18T03:35:54.484Z,27.23
2022-10-18T03:38:41.470Z,26.93
2022-10-18T03:41:28.498Z,25.20
2022-10-18T03:44:15.458Z,25.93
2022-10-18T03:47:02.917Z,24.87
2022-10-18T03:49:53.217Z,24.17
2022-10-18T03:52:43.293Z,25.30
2022-10-18T03:55:30.716Z,24.97
2022-10-18T03:58:18.271Z,27.07
2022-10-18T04:01:05.590Z,26.33
2022-10-18T04:03:52.604Z,26.90
2022-10-18T04:06:39.663Z,28.10
2022-10-18T04:09:26.941Z,27.70
2022-10-18T04:12:13.890Z,26.13
2022-10-18T04:15:00.897Z,26.90
2022-10-18T04:17:47.881Z,29.57
2022-10-18T04:20:34.806Z,26.70
2022-10-18T04:23:21.816Z,23.97
2022-10-18T04:26:08.813Z,24.10
2022-10-18T04:28:55.788Z,23.87
2022-10-18T04:31:43.071Z,22.40
2022-10-18T04:34:30.043Z,23.23
2022-10-18T04:37:17.417Z,22.50
2022-10-18T04:40:04.838Z,26.00
2022-10-18T04:42:52.001Z,21.87
2022-10-18T04:45:38.930Z,24.67
2022-10-18T04:48:26.325Z,25.57
2022-10-18T04:51:13.351Z,23.63
2022-10-18T04:54:00.373Z,23.13
2022-10-18T04:56:47.262Z,23.80
2022-10-18T04:59:34.245Z,25.40
2022-10-18T05:02:21.155Z,27.43
2022-10-18T05:05:10.402Z,25.57
2022-10-18T05:08:00.218Z,24.20
2022-10-18T05:10:47.501Z,25.13
2022-10-18T05:13:34.519Z,24.17
2022-10-18T05:16:21.597Z,27.83
2022-10-18T05:19:08.498Z,24.13
2022-10-18T05:21:55.480Z,25.07
2022-10-18T05:24:42.415Z,25.40
2022-10-18T05:27:29.821Z,24.27
2022-10-18T05:30:16.899Z,24.07
2022-10-18T05:33:03.964Z,24.67
2022-10-18T05:35:50.923Z,23.57
2022-10-18T05:38:43.037Z,23.10
2022-10-18T05:41:30.361Z,24.33
2022-10-18T05:44:17.302Z,25.20
2022-10-18T05:47:04.247Z,24.53
2022-10-18T05:49:51.140Z,27.23
2022-10-18T05:52:38.195Z,26.17
2022-10-18T05:55:25.208Z,27.07
2022-10-18T05:58:12.189Z,27.77
2022-10-18T06:01:01.051Z,26.70
2022-10-18T06:03:48.342Z,25.33
2022-10-18T06:06:35.264Z,28.50
2022-10-18T06:09:22.391Z,29.27
2022-10-18T06:12:09.494Z,24.73
2022-10-18T06:14:56.438Z,25.70
2022-10-18T06:17:43.554Z,26.03
2022-10-18T06:20:30.449Z,27.80
2022-10-18T06:23:17.404Z,30.17
2022-10-18T06:26:07.192Z,28.87
2022-10-18T06:28:54.559Z,28.73
2022-10-18T06:31:41.677Z,32.30
2022-10-18T06:34:28.717Z,29.97
2022-10-18T06:37:15.630Z,29.30
2022-10-18T06:40:02.671Z,27.60
2022-10-18T06:42:59.965Z,27.63
2022-10-18T06:45:47.609Z,27.53
2022-10-18T06:48:35.846Z,27.13
2022-10-18T06:51:22.834Z,24.13
2022-10-18T06:54:18.157Z,23.77
2022-10-18T06:57:06.006Z,26.90
2022-10-18T06:59:53.089Z,27.23
2022-10-18T07:02:41.355Z,27.00
2022-10-18T07:05:28.422Z,24.67
2022-10-18T07:08:16.320Z,25.73
2022-10-18T07:11:03.862Z,28.30
2022-10-18T07:13:51.734Z,26.53
2022-10-18T07:16:38.787Z,22.20
2022-10-18T07:19:25.790Z,27.70
2022-10-18T07:22:12.776Z,30.43
2022-10-18T07:24:59.733Z,28.43
2022-10-18T07:27:46.702Z,29.97
2022-10-18T07:30:34.082Z,32.57
2022-10-18T07:33:21.216Z,30.57
2022-10-18T07:36:10.048Z,32.97
2022-10-18T07:38:57.186Z,33.57
2022-10-18T07:41:44.241Z,33.53
2022-10-18T07:44:31.217Z,34.00
2022-10-18T07:47:18.326Z,31.73
2022-10-18T07:50:06.162Z,32.37
2022-10-18T07:52:53.087Z,32.03
2022-10-18T07:55:40.206Z,30.37
2022-10-18T07:58:27.808Z,28.33
2022-10-18T08:01:15.479Z,29.93
2022-10-18T08:04:07.172Z,30.07
2022-10-18T08:06:55.364Z,29.77
2022-10-18T08:09:42.266Z,29.90
2022-10-18T08:12:29.239Z,30.57
2022-10-18T08:15:16.227Z,30.27
2022-10-18T08:18:03.278Z,28.77
2022-10-18T08:20:50.254Z,28.77
2022-10-18T08:23:37.817Z,27.87
2022-10-18T08:26:24.846Z,29.00
2022-10-18T08:29:31.656Z,29.23
2022-10-18T08:32:19.025Z,29.20
2022-10-18T08:35:08.625Z,31.33
2022-10-18T08:37:56.477Z,30.07
2022-10-18T08:40:44.520Z,31.17
2022-10-18T08:43:41.395Z,29.50
2022-10-18T08:46:28.762Z,27.93
2022-10-18T08:49:26.781Z,31.70
2022-10-18T08:52:28.419Z,30.43
2022-10-18T08:55:31.047Z,31.63
2022-10-18T08:58:27.498Z,31.43
2022-10-18T09:04:53.877Z,31.00
2022-10-18T09:07:51.710Z,30.80
2022-10-18T09:11:05.269Z,30.07
2022-10-18T09:14:27.902Z,28.93
2022-10-18T09:17:23.589Z,30.07
2022-10-18T09:20:50.456Z,28.17
2022-10-18T09:24:06.407Z,28.57
2022-10-18T09:27:02.438Z,27.73
2022-10-18T09:29:49.391Z,27.70
2022-10-18T09:32:48.096Z,27.23
2022-10-18T09:35:52.712Z,25.73
2022-10-18T09:38:49.738Z,26.57
2022-10-18T09:42:16.349Z,24.40
2022-10-18T09:45:13.634Z,24.43
2022-10-18T09:48:12.167Z,22.53
2022-10-18T09:51:12.642Z,22.97
2022-10-18T09:54:18.021Z,21.97
2022-10-18T09:57:14.134Z,22.43
2022-10-18T10:00:03.640Z,20.37
2022-10-18T10:02:50.624Z,19.13
2022-10-18T10:05:38.521Z,19.03
2022-10-18T10:08:33.642Z,18.57
2022-10-18T10:11:33.654Z,17.40
2022-10-18T10:14:27.345Z,15.60
2022-10-18T10:17:34.963Z,15.03
2022-10-18T10:20:25.193Z,13.83
2022-10-18T10:23:28.232Z,14.53
2022-10-18T10:26:28.236Z,15.37
2022-10-18T10:29:56.548Z,15.20
2022-10-18T10:32:47.566Z,14.67
2022-10-18T10:35:55.559Z,15.17
2022-10-18T10:38:42.513Z,15.07
2022-10-18T10:41:29.963Z,15.17
2022-10-18T10:44:25.885Z,15.43
2022-10-18T10:47:32.989Z,14.90
2022-10-18T10:50:29.126Z,14.83
2022-10-18T10:53:38.213Z,15.73
2022-10-18T10:56:31.449Z,14.10
2022-10-18T10:59:20.812Z,13.07
2022-10-18T11:02:17.695Z,12.53
2022-10-18T11:05:25.272Z,11.30
2022-10-18T11:08:19.383Z,10.47
2022-10-18T11:11:33.894Z,10.70
2022-10-18T11:14:27.241Z,9.53
2022-10-18T11:17:27.684Z,10.43
2022-10-18T11:20:31.094Z,10.37
2022-10-18T11:23:19.495Z,11.43
2022-10-18T11:26:12.522Z,8.00
2022-10-18T11:29:31.775Z,9.13
2022-10-18T11:33:03.047Z,8.13
2022-10-18T11:36:13.151Z,9.10
2022-10-18T11:39:27.187Z,9.07
2022-10-18T11:42:43.727Z,8.23
2022-10-18T11:45:42.577Z,8.27
2022-10-18T11:48:57.194Z,7.80
2022-10-18T11:52:19.082Z,8.57
2022-10-18T11:55:06.062Z,9.30
2022-10-18T11:58:03.462Z,8.27
2022-10-18T12:01:28.948Z,7.17
2022-10-18T12:04:15.878Z,7.33
2022-10-18T12:07:06.724Z,8.57
2022-10-18T12:09:55.704Z,8.07
2022-10-18T12:12:52.052Z,7.20
2022-10-18T12:15:41.424Z,6.70
2022-10-18T12:18:30.662Z,6.07
2022-10-18T12:21:25.508Z,6.53
2022-10-18T12:24:18.498Z,5.30
2022-10-18T12:27:05.907Z,4.90
2022-10-18T12:29:59.950Z,3.87
2022-10-18T12:33:03.454Z,3.17
2022-10-18T12:36:11.020Z,3.40
2022-10-18T12:39:05.737Z,2.90
2022-10-18T12:41:55.631Z,2.87
2022-10-18T12:44:42.634Z,2.53
2022-10-18T12:47:33.061Z,2.50
2022-10-18T12:50:43.875Z,2.80
2022-10-18T12:53:32.168Z,2.97
2022-10-18T12:56:28.121Z,2.97
2022-10-18T12:59:15.162Z,3.07
2022-10-18T13:02:05.069Z,2.80
2022-10-18T13:04:52.194Z,2.40
2022-10-18T13:07:41.106Z,2.87
2022-10-18T13:10:37.088Z,3.10
2022-10-18T13:13:40.244Z,2.70
2022-10-18T13:16:34.223Z,2.73
2022-10-18T13:19:51.377Z,2.80
2022-10-18T13:23:00.122Z,2.93
2022-10-18T13:26:12.981Z,3.10
2022-10-18T13:29:19.645Z,2.40
2022-10-18T13:32:30.457Z,2.70
2022-10-18T13:35:55.597Z,2.20
2022-10-18T13:39:04.437Z,2.50
2022-10-18T13:41:55.093Z,1.73
2022-10-18T13:44:46.426Z,1.93
2022-10-18T13:47:38.073Z,2.33
2022-10-18T13:50:34.189Z,1.83
2022-10-18T13:53:40.307Z,1.60
2022-10-18T13:56:36.741Z,1.50
2022-10-18T13:59:32.786Z,2.00
2022-10-18T14:02:59.698Z,1.50
2022-10-18T14:06:10.479Z,1.80
2022-10-18T14:09:26.407Z,1.40
2022-10-18T14:12:35.448Z,1.60
2022-10-18T14:15:34.437Z,1.43
2022-10-18T14:18:31.839Z,1.90
2022-10-18T14:21:31.412Z,1.50
2022-10-18T14:24:24.898Z,1.73
2022-10-18T14:27:25.915Z,1.77
2022-10-18T14:30:12.812Z,1.63
2022-10-18T14:32:59.760Z,1.83
2022-10-18T14:35:59.200Z,1.90
2022-10-18T14:38:46.207Z,1.50
2022-10-18T14:41:35.527Z,1.60
2022-10-18T14:44:40.444Z,1.90
2022-10-18T14:47:31.777Z,2.10
2022-10-18T14:50:23.990Z,2.20
2022-10-18T14:53:18.762Z,2.30
2022-10-18T14:56:07.639Z,2.43
2022-10-18T14:58:57.312Z,2.07
2022-10-18T15:01:54.016Z,2.47
2022-10-18T15:04:44.318Z,2.40
2022-10-18T15:07:32.532Z,2.00
2022-10-18T15:10:27.477Z,2.10
2022-10-18T15:13:15.973Z,2.03
2022-10-18T15:16:03.478Z,2.00
2022-10-18T15:19:28.705Z,2.23
2022-10-18T15:22:32.116Z,2.13
2022-10-18T15:25:31.559Z,2.57
2022-10-18T15:28:30.512Z,2.30
2022-10-18T15:31:25.524Z,2.57
2022-10-18T15:34:26.991Z,2.00
2022-10-18T15:37:37.707Z,2.57
2022-10-18T15:40:24.783Z,2.40
2022-10-18T15:43:23.917Z,2.20
2022-10-18T15:46:30.178Z,2.47
2022-10-18T15:49:46.337Z,2.70
2022-10-18T15:52:39.000Z,1.83
2022-10-18T15:55:33.774Z,2.20
2022-10-18T15:58:39.270Z,1.97
2022-10-18T16:01:37.742Z,2.23
2022-10-18T16:04:33.221Z,2.10
2022-10-18T16:07:20.456Z,2.10
2022-10-18T16:10:13.787Z,2.10
2022-10-18T16:13:00.741Z,2.10
2022-10-18T16:15:47.918Z,2.07
2022-10-18T16:18:34.906Z,1.70
2022-10-18T16:21:26.788Z,2.30
2022-10-18T16:24:13.796Z,2.50
2022-10-18T16:27:00.799Z,1.90
2022-10-18T16:29:47.798Z,2.00
2022-10-18T16:32:34.904Z,1.93
2022-10-18T16:35:21.974Z,1.90
2022-10-18T16:38:20.418Z,2.13
2022-10-18T16:41:08.837Z,1.63
2022-10-18T16:43:55.854Z,2.10
2022-10-18T16:46:42.827Z,2.00
2022-10-18T16:49:29.842Z,2.10
2022-10-18T16:52:16.837Z,1.90
2022-10-18T16:55:04.030Z,2.43
2022-10-18T16:57:51.859Z,2.30
2022-10-18T17:00:40.349Z,2.47
2022-10-18T17:03:27.332Z,2.30
2022-10-18T17:06:20.773Z,2.60
2022-10-18T17:09:09.551Z,2.40
2022-10-18T17:11:56.644Z,2.83
2022-10-18T17:14:43.565Z,3.33
2022-10-18T17:17:30.935Z,2.70
2022-10-18T17:20:32.117Z,3.07
2022-10-18T17:23:19.381Z,2.70
2022-10-18T17:26:26.206Z,2.87
2022-10-18T17:29:13.355Z,3.57
2022-10-18T17:32:00.380Z,2.93
2022-10-18T17:34:47.368Z,3.33
2022-10-18T17:37:34.694Z,3.37
2022-10-18T17:40:24.030Z,3.77
2022-10-18T17:43:13.322Z,4.00
2022-10-18T17:46:00.305Z,4.00
2022-10-18T17:48:47.529Z,3.80
2022-10-18T17:51:34.478Z,4.00
2022-10-18T17:54:21.798Z,5.13
2022-10-18T17:57:08.859Z,5.93
2022-10-18T17:59:56.418Z,6.00
2022-10-18T18:02:43.587Z,6.20
2022-10-18T18:05:32.704Z,5.70
2022-10-18T18:08:20.120Z,5.20
2022-10-18T18:11:07.365Z,4.93
2022-10-18T18:13:58.445Z,5.60
2022-10-18T18:16:47.390Z,5.53
2022-10-18T18:19:34.899Z,5.17
2022-10-18T18:22:21.877Z,5.07
2022-10-18T18:25:09.922Z,4.50
2022-10-18T18:27:57.031Z,3.67
2022-10-18T18:30:43.939Z,5.33
2022-10-18T18:33:33.086Z,4.67
2022-10-18T18:36:20.985Z,4.53
2022-10-18T18:39:09.387Z,3.97
2022-10-18T18:41:57.043Z,5.17
2022-10-18T18:44:46.482Z,4.70
2022-10-18T18:47:36.348Z,4.00
2022-10-18T18:50:24.247Z,4.27
2022-10-18T18:53:11.521Z,4.37
2022-10-18T18:56:07.723Z,4.50
2022-10-18T18:58:55.581Z,4.07
2022-10-18T19:01:43.955Z,3.70
2022-10-18T19:04:32.064Z,4.17
2022-10-18T19:07:19.648Z,3.87
2022-10-18T19:10:06.945Z,4.23
2022-10-18T19:12:54.521Z,4.03
2022-10-18T19:15:42.373Z,3.77
2022-10-18T19:18:30.774Z,3.80
2022-10-18T19:21:18.739Z,4.20
2022-10-18T19:24:07.975Z,3.93
2022-10-18T19:26:58.104Z,4.23
2022-10-18T19:29:46.168Z,3.50
2022-10-18T19:32:33.985Z,3.73
2022-10-18T19:35:22.309Z,3.57
2022-10-18T19:38:09.533Z,4.33
2022-10-18T19:40:56.594Z,3.33
2022-10-18T19:43:43.573Z,3.47
2022-10-18T19:46:30.569Z,4.13
2022-10-18T19:49:18.028Z,3.90
2022-10-18T19:52:05.569Z,4.17
2022-10-18T19:54:52.559Z,4.17
2022-10-18T19:57:39.597Z,3.73
2022-10-18T20:00:26.667Z,4.10
2022-10-18T20:03:13.895Z,3.60
2022-10-18T20:06:02.254Z,4.17
2022-10-18T20:08:49.766Z,3.73
2022-10-18T20:11:37.179Z,3.60
2022-10-18T20:14:24.170Z,3.93
2022-10-18T20:17:13.075Z,3.43
2022-10-18T20:20:00.084Z,3.83
2022-10-18T20:22:47.041Z,3.70
2022-10-18T20:25:34.087Z,3.53
2022-10-18T20:28:21.104Z,3.30
2022-10-18T20:31:17.984Z,3.57
2022-10-18T20:34:08.737Z,3.90
2022-10-18T20:36:55.837Z,4.20
2022-10-18T20:39:42.813Z,3.77
2022-10-18T20:42:29.835Z,3.40
2022-10-18T20:45:16.901Z,3.70
2022-10-18T20:48:04.077Z,3.20
2022-10-18T20:50:51.318Z,3.47
2022-10-18T20:53:39.334Z,3.40
2022-10-18T20:56:27.370Z,4.43
2022-10-18T20:59:14.806Z,4.70
2022-10-18T21:02:01.822Z,4.00
2022-10-18T21:04:48.833Z,4.07
2022-10-18T21:07:36.037Z,3.77
2022-10-18T21:10:23.722Z,4.57
2022-10-18T21:13:10.710Z,3.70
2022-10-18T21:15:59.189Z,3.87
2022-10-18T21:18:46.303Z,3.97
2022-10-18T21:21:33.396Z,4.07
2022-10-18T21:24:21.932Z,4.00
2022-10-18T21:27:08.912Z,4.50
2022-10-18T21:29:58.772Z,4.17
2022-10-18T21:32:46.954Z,4.00
2022-10-18T21:35:38.878Z,4.80
2022-10-18T21:38:26.844Z,4.33
2022-10-18T21:41:16.504Z,4.57
2022-10-18T21:44:05.695Z,4.33
2022-10-18T21:46:55.891Z,5.13
2022-10-18T21:49:43.561Z,4.43
2022-10-18T21:52:31.781Z,4.50
2022-10-18T21:55:19.317Z,4.40
2022-10-18T21:58:06.951Z,4.07
2022-10-18T22:00:54.422Z,4.27
2022-10-18T22:03:42.943Z,4.30
2022-10-18T22:06:32.876Z,4.97
2022-10-18T22:09:21.201Z,4.30
2022-10-18T22:12:10.851Z,4.70
2022-10-18T22:14:58.068Z,4.20
2022-10-18T22:17:45.045Z,4.53
2022-10-18T22:20:32.029Z,3.80
2022-10-18T22:23:18.998Z,4.60
2022-10-18T22:26:11.471Z,4.30
2022-10-18T22:29:04.238Z,4.20
2022-10-18T22:31:53.581Z,4.43
2022-10-18T22:34:40.689Z,4.40
2022-10-18T22:37:27.626Z,4.63
2022-10-18T22:40:14.653Z,3.70
2022-10-18T22:43:01.550Z,3.73
2022-10-18T22:45:48.513Z,4.07
2022-10-18T22:48:36.262Z,4.00
2022-10-18T22:51:23.270Z,4.53
2022-10-18T22:54:10.604Z,3.97
2022-10-18T22:56:57.581Z,3.87
2022-10-18T22:59:44.545Z,4.23
2022-10-18T23:02:31.712Z,4.60
2022-10-18T23:05:18.876Z,3.83
2022-10-18T23:08:07.533Z,3.67
2022-10-18T23:10:57.250Z,4.23
2022-10-18T23:13:44.557Z,3.70
2022-10-18T23:16:32.396Z,4.70
2022-10-18T23:19:19.409Z,4.50
2022-10-18T23:22:06.382Z,3.93
2022-10-18T23:24:53.314Z,4.40
2022-10-18T23:27:40.412Z,4.20
2022-10-18T23:30:27.327Z,4.70
2022-10-18T23:33:14.335Z,4.10
2022-10-18T23:36:01.300Z,4.50
2022-10-18T23:38:48.494Z,4.20
2022-10-18T23:41:35.524Z,4.60
2022-10-18T23:44:22.502Z,4.47
2022-10-18T23:47:09.460Z,4.50
2022-10-18T23:49:58.882Z,4.47
2022-10-18T23:52:45.828Z,4.27
2022-10-18T23:55:32.790Z,4.50
2022-10-18T23:58:19.852Z,4.03
